Time;durP1;ratioP1;P1;durP2;ratioP2;P2;SDS_P1;SDS_P2;PMS_P1;PMS_P2;Temp;Humidity;BMP_temperature;BMP_pressure;BME280_temperature;BME280_humidity;BME280_pressure;Samples;Min_cycle;Max_cycle;Signal;HPM_P1;HPM_P2
2022/10/11 00:01:26;;;;;;;4.73;1.23;;;;;;;7.57;100.00;101591.84;5999106;28;20031;-66
2022/10/11 00:04:22;;;;;;;12.83;1.60;;;;;;;7.59;100.00;101608.41;6002054;28;20041;-66
2022/10/11 00:07:18;;;;;;;7.88;1.63;;;;;;;7.54;100.00;101599.97;5999090;28;20449;-66
2022/10/11 00:10:14;;;;;;;9.40;1.90;;;;;;;7.57;100.00;101599.75;6019100;28;20027;-65
2022/10/11 00:13:09;;;;;;;6.35;1.40;;;;;;;7.62;100.00;101618.75;6022465;28;20322;-65
2022/10/11 00:16:09;;;;;;;5.70;1.40;;;;;;;7.46;100.00;101615.47;6020676;28;20049;-64
2022/10/11 00:19:05;;;;;;;14.73;1.63;;;;;;;7.47;100.00;101620.69;6019275;28;20046;-64
2022/10/11 00:22:00;;;;;;;7.83;1.63;;;;;;;7.46;100.00;101610.22;5998656;28;20444;-64
2022/10/11 00:24:57;;;;;;;11.80;2.50;;;;;;;7.57;100.00;101623.53;5998795;28;20031;-67
2022/10/11 00:27:53;;;;;;;4.57;1.77;;;;;;;7.36;100.00;101617.06;5999007;28;20301;-64
2022/10/11 00:30:48;;;;;;;6.05;1.30;;;;;;;7.38;100.00;101625.72;6009617;28;20096;-65
2022/10/11 00:33:44;;;;;;;8.20;1.60;;;;;;;7.23;100.00;101621.47;6016439;28;20035;-65
2022/10/11 00:36:40;;;;;;;7.32;2.20;;;;;;;7.37;100.00;101638.06;5998716;28;20039;-65
2022/10/11 00:39:35;;;;;;;9.77;1.60;;;;;;;7.30;100.00;101620.09;5997460;28;20069;-65
2022/10/11 00:42:31;;;;;;;5.90;1.73;;;;;;;7.29;100.00;101636.88;5998301;28;20570;-65
2022/10/11 00:45:26;;;;;;;11.02;1.48;;;;;;;7.17;100.00;101655.19;6004794;28;20285;-65
2022/10/11 00:48:29;;;;;;;6.60;1.73;;;;;;;7.07;100.00;101648.84;5998365;28;20038;-65
2022/10/11 00:51:35;;;;;;;7.40;1.70;;;;;;;7.13;100.00;101653.72;5997108;28;20049;-65
2022/10/11 00:54:33;;;;;;;12.65;2.45;;;;;;;7.06;100.00;101635.78;6006767;28;20475;-65
2022/10/11 00:57:30;;;;;;;8.75;1.63;;;;;;;7.08;100.00;101649.69;5998962;28;20039;-65
2022/10/11 01:00:26;;;;;;;9.98;1.38;;;;;;;7.06;100.00;101646.31;6005368;28;20038;-65
2022/10/11 01:03:23;;;;;;;5.40;1.25;;;;;;;7.22;100.00;101652.28;6010753;28;20038;-65
2022/10/11 01:06:18;;;;;;;6.70;1.27;;;;;;;7.15;100.00;101659.72;5996952;28;20487;-65
2022/10/11 01:09:14;;;;;;;3.90;1.23;;;;;;;7.08;100.00;101657.59;6005384;28;20036;-65
2022/10/11 01:12:19;;;;;;;7.15;1.27;;;;;;;7.11;100.00;101658.25;6019991;28;20036;-65
2022/10/11 01:15:32;;;;;;;4.57;1.20;;;;;;;7.08;100.00;101657.59;5998900;28;20483;-64
2022/10/11 01:18:34;;;;;;;7.32;1.75;;;;;;;7.04;100.00;101656.94;5998488;28;20038;-65
2022/10/11 01:21:47;;;;;;;7.07;1.58;;;;;;;7.06;100.00;101647.19;5997191;28;20043;-65
2022/10/11 01:25:09;;;;;;;10.65;1.40;;;;;;;7.22;100.00;101669.88;6001216;28;20042;-65
2022/10/11 01:28:42;;;;;;;8.25;2.30;;;;;;;7.11;100.00;101670.59;6001316;28;20364;-65
2022/10/11 01:31:44;;;;;;;11.02;2.13;;;;;;;7.10;100.00;101667.09;5965806;28;20047;-65
2022/10/11 01:34:58;;;;;;;16.17;1.73;;;;;;;7.00;100.00;101652.84;6002209;28;21307;-65
2022/10/11 01:38:22;;;;;;;11.18;1.77;;;;;;;7.16;100.00;101674.63;6019793;28;20039;-65
2022/10/11 01:41:22;;;;;;;9.35;1.63;;;;;;;7.12;100.00;101682.84;6000904;28;20608;-65
2022/10/11 01:44:18;;;;;;;6.57;1.80;;;;;;;7.09;100.00;101678.59;6001553;28;20069;-65
2022/10/11 01:47:21;;;;;;;5.50;1.50;;;;;;;6.98;100.00;101667.94;6001524;28;20034;-65
2022/10/11 01:50:40;;;;;;;6.07;1.23;;;;;;;6.90;100.00;101683.38;6024639;28;20034;-65
2022/10/11 01:54:05;;;;;;;7.07;2.13;;;;;;;6.85;100.00;101653.81;6000159;28;20046;-65
2022/10/11 01:57:21;;;;;;;6.10;1.88;;;;;;;6.82;100.00;101688.28;6000712;28;20034;-65
2022/10/11 02:00:18;;;;;;;9.23;1.83;;;;;;;6.83;100.00;101683.88;6001014;28;20047;-65
2022/10/11 02:03:26;;;;;;;9.70;1.83;;;;;;;6.91;100.00;101694.75;6001878;28;20106;-65
2022/10/11 02:06:35;;;;;;;10.80;2.10;;;;;;;7.04;100.00;101701.78;6014816;28;20169;-65
2022/10/11 02:09:37;;;;;;;6.68;1.85;;;;;;;6.89;100.00;101692.25;6003835;28;20084;-65
2022/10/11 02:12:37;;;;;;;7.50;1.88;;;;;;;6.97;100.00;101689.09;6023194;28;20062;-65
2022/10/11 02:15:34;;;;;;;8.35;1.38;;;;;;;6.89;100.00;101686.97;6015355;28;20114;-65
2022/10/11 02:18:33;;;;;;;10.88;1.98;;;;;;;6.77;100.00;101687.72;6000385;28;20058;-65
2022/10/11 02:21:28;;;;;;;13.05;1.88;;;;;;;6.85;100.00;101690.72;6020178;28;20074;-65
2022/10/11 02:24:28;;;;;;;7.53;1.93;;;;;;;6.84;100.00;101699.59;6015065;28;20078;-65
2022/10/11 02:27:28;;;;;;;18.02;1.90;;;;;;;6.96;100.00;101698.78;6000320;28;20023;-65
2022/10/11 02:30:23;;;;;;;6.30;1.63;;;;;;;6.92;100.00;101699.94;6000869;28;20050;-65
2022/10/11 02:33:24;;;;;;;8.17;2.30;;;;;;;6.79;100.00;101699.06;5999801;28;20141;-65
2022/10/11 02:36:28;;;;;;;12.05;1.60;;;;;;;6.82;100.00;101709.38;5999258;28;20038;-65
2022/10/11 02:39:37;;;;;;;10.90;1.73;;;;;;;6.72;100.00;101716.19;6023674;28;20037;-65
2022/10/11 02:42:36;;;;;;;4.05;1.73;;;;;;;6.69;100.00;101715.50;6023913;28;20023;-65
2022/10/11 02:45:41;;;;;;;6.15;2.15;;;;;;;6.77;100.00;101723.78;5999491;28;20125;-65
2022/10/11 02:48:36;;;;;;;9.68;2.08;;;;;;;6.68;100.00;101709.41;6004051;28;20150;-65
2022/10/11 02:51:32;;;;;;;11.55;1.88;;;;;;;6.62;100.00;101719.50;6000429;28;20486;-65
2022/10/11 02:54:28;;;;;;;10.05;2.20;;;;;;;6.46;100.00;101724.88;6002561;28;20039;-65
2022/10/11 02:57:23;;;;;;;7.78;1.98;;;;;;;6.50;100.00;101719.31;6000592;28;20030;-65
2022/10/11 03:00:19;;;;;;;4.55;2.15;;;;;;;6.50;100.00;101715.81;5999847;28;20045;-65
2022/10/11 03:03:14;;;;;;;11.97;2.10;;;;;;;6.38;100.00;101713.97;6000113;28;20114;-65
2022/10/11 03:06:11;;;;;;;10.85;2.13;;;;;;;6.54;100.00;101720.81;6000536;28;20270;-65
2022/10/11 03:09:06;;;;;;;12.18;2.25;;;;;;;6.57;100.00;101730.31;6000994;28;20026;-65
2022/10/11 03:12:02;;;;;;;6.57;2.63;;;;;;;6.59;100.00;101731.06;6000805;28;20097;-65
2022/10/11 03:14:57;;;;;;;14.43;3.45;;;;;;;6.65;100.00;101720.16;6015138;28;20041;-65
2022/10/11 03:17:52;;;;;;;6.53;2.83;;;;;;;6.53;100.00;101721.75;6000231;28;20039;-65
2022/10/11 03:20:48;;;;;;;8.90;3.00;;;;;;;6.42;100.00;101723.34;5999443;28;20034;-65
2022/10/11 03:23:43;;;;;;;8.40;3.07;;;;;;;6.45;100.00;101744.25;5999528;28;20058;-65
2022/10/11 03:26:38;;;;;;;8.17;3.00;;;;;;;6.43;100.00;101751.41;6009021;28;20310;-65
2022/10/11 03:29:34;;;;;;;11.73;2.92;;;;;;;6.37;100.00;101757.03;6023254;28;20802;-65
2022/10/11 03:32:29;;;;;;;13.57;3.30;;;;;;;6.39;100.00;101744.63;6022134;28;20106;-65
2022/10/11 03:35:24;;;;;;;11.43;3.17;;;;;;;6.41;100.00;101763.84;6007696;28;20031;-65
2022/10/11 03:38:21;;;;;;;13.30;3.40;;;;;;;6.31;100.00;101773.22;6009833;28;20031;-65
2022/10/11 03:41:16;;;;;;;18.33;3.60;;;;;;;6.18;100.00;101772.25;6018627;28;20497;-65
2022/10/11 03:44:13;;;;;;;9.27;3.35;;;;;;;6.03;100.00;101754.75;6014806;28;20265;-65
2022/10/11 03:47:08;;;;;;;13.07;4.03;;;;;;;5.96;100.00;101776.16;6007219;28;20463;-65
2022/10/11 03:50:05;;;;;;;8.07;3.00;;;;;;;5.76;100.00;101755.41;5998555;28;20375;-66
2022/10/11 03:53:01;;;;;;;9.98;3.53;;;;;;;6.17;100.00;101775.84;5998865;28;20037;-65
2022/10/11 03:55:56;;;;;;;15.60;4.00;;;;;;;6.30;100.00;101766.25;6004423;28;20034;-65
2022/10/11 03:58:52;;;;;;;12.87;3.90;;;;;;;6.43;100.00;101783.03;6022692;28;20030;-65
2022/10/11 04:01:47;;;;;;;14.63;3.77;;;;;;;6.33;100.00;101782.72;6022142;28;20062;-65
2022/10/11 04:04:42;;;;;;;13.03;3.67;;;;;;;6.37;100.00;101784.22;6000148;28;20057;-65
2022/10/11 04:07:38;;;;;;;15.73;4.13;;;;;;;6.60;100.00;101796.03;5999093;28;20485;-65
2022/10/11 04:10:35;;;;;;;12.77;4.03;;;;;;;6.42;100.00;101786.59;6002238;28;20505;-65
2022/10/11 04:13:30;;;;;;;10.85;4.20;;;;;;;6.38;100.00;101790.34;5985678;28;20038;-65
2022/10/11 04:16:26;;;;;;;13.57;3.73;;;;;;;6.32;100.00;101796.00;5998783;28;20722;-65
2022/10/11 04:19:21;;;;;;;11.23;3.60;;;;;;;6.38;100.00;101793.84;5999417;28;20359;-65
2022/10/11 04:22:16;;;;;;;19.17;3.77;;;;;;;6.28;100.00;101784.78;6007113;28;20474;-65
2022/10/11 04:25:12;;;;;;;12.03;3.93;;;;;;;6.25;100.00;101795.50;5999827;28;20081;-65
2022/10/11 04:28:08;;;;;;;12.33;4.20;;;;;;;6.17;100.00;101789.84;6019526;28;20498;-65
2022/10/11 04:31:04;;;;;;;12.10;3.35;;;;;;;6.18;100.00;101804.72;6021299;28;20305;-65
2022/10/11 04:33:59;;;;;;;8.10;3.00;;;;;;;6.01;100.00;101802.22;6016634;28;20474;-65
2022/10/11 04:36:55;;;;;;;9.45;3.60;;;;;;;5.99;100.00;101810.22;6002817;28;20089;-65
2022/10/11 04:39:50;;;;;;;8.77;3.03;;;;;;;6.05;100.00;101823.97;6005184;28;20093;-65
2022/10/11 04:42:45;;;;;;;10.87;3.43;;;;;;;5.90;100.00;101816.00;6005428;28;20078;-65
2022/10/11 04:45:41;;;;;;;10.88;3.08;;;;;;;5.94;100.00;101828.06;5997890;28;20136;-65
2022/10/11 04:48:37;;;;;;;10.77;2.90;;;;;;;6.08;100.00;101829.03;5998520;28;20031;-66
2022/10/11 04:51:32;;;;;;;11.10;3.00;;;;;;;5.87;100.00;101810.91;6009654;28;20035;-65
2022/10/11 04:54:29;;;;;;;6.78;2.75;;;;;;;6.03;100.00;101815.31;6006998;28;20115;-65
2022/10/11 04:57:24;;;;;;;9.45;3.00;;;;;;;6.18;100.00;101833.69;6021058;28;20057;-65
2022/10/11 05:00:19;;;;;;;10.53;2.63;;;;;;;6.05;100.00;101830.06;6024352;28;20038;-65
2022/10/11 05:03:15;;;;;;;8.70;2.50;;;;;;;6.13;100.00;101850.69;6026906;28;20030;-65
2022/10/11 05:06:10;;;;;;;7.20;3.33;;;;;;;6.07;100.00;101844.00;6009181;28;20050;-65
2022/10/11 05:09:05;;;;;;;8.97;2.60;;;;;;;6.38;100.00;101853.56;6000568;28;20034;-65
2022/10/11 05:12:02;;;;;;;8.63;3.00;;;;;;;6.48;100.00;101857.34;6000731;28;20278;-65
2022/10/11 05:14:58;;;;;;;8.07;2.97;;;;;;;6.29;100.00;101862.00;6018109;28;20031;-65
2022/10/11 05:17:53;;;;;;;8.35;3.00;;;;;;;6.54;100.00;101860.47;6002639;28;20109;-65
2022/10/11 05:21:00;;;;;;;11.80;3.30;;;;;;;6.23;100.00;101844.78;6001939;28;20054;-65
2022/10/11 05:23:56;;;;;;;11.82;3.30;;;;;;;6.13;100.00;101848.06;6013028;28;20141;-65
2022/10/11 05:26:51;;;;;;;7.93;3.17;;;;;;;6.50;100.00;101860.72;6021484;28;20031;-65
2022/10/11 05:29:46;;;;;;;10.53;3.63;;;;;;;6.53;100.00;101869.31;6002732;28;20031;-64
2022/10/11 05:32:42;;;;;;;10.33;3.40;;;;;;;6.54;100.00;101864.91;6002002;28;20062;-64
2022/10/11 05:35:37;;;;;;;12.23;3.40;;;;;;;6.50;100.00;101866.00;6002103;28;20288;-64
2022/10/11 05:38:32;;;;;;;12.00;3.33;;;;;;;6.39;100.00;101887.72;6004789;28;20340;-64
2022/10/11 05:41:28;;;;;;;9.37;2.70;;;;;;;6.29;100.00;101870.78;6002629;28;20286;-64
2022/10/11 05:44:23;;;;;;;10.82;2.17;;;;;;;6.23;100.00;101886.06;6001390;28;20324;-65
2022/10/11 05:47:19;;;;;;;9.80;2.78;;;;;;;6.14;100.00;101892.75;6001736;28;20031;-66
2022/10/11 05:50:14;;;;;;;11.20;2.30;;;;;;;6.14;100.00;101892.75;6019650;28;20026;-66
2022/10/11 05:53:09;;;;;;;10.93;2.80;;;;;;;5.87;100.00;101886.44;6023102;28;20026;-66
2022/10/11 05:56:16;;;;;;;10.52;2.70;;;;;;;5.81;100.00;101887.59;6007001;28;20386;-66
2022/10/11 05:59:12;;;;;;;11.60;2.33;;;;;;;5.91;100.00;101904.59;5991194;28;20031;-66
2022/10/11 06:02:11;;;;;;;7.60;2.07;;;;;;;6.07;100.00;101903.69;6000727;28;20046;-66
2022/10/11 06:05:07;;;;;;;10.15;2.30;;;;;;;5.86;100.00;101908.41;6001600;28;20023;-66
2022/10/11 06:08:04;;;;;;;10.10;2.28;;;;;;;5.76;100.00;101902.75;6019360;28;20026;-66
2022/10/11 06:11:14;;;;;;;8.05;2.40;;;;;;;5.85;100.00;101897.03;6010268;28;20067;-66
2022/10/11 06:14:10;;;;;;;14.45;2.45;;;;;;;5.75;100.00;101906.34;6014334;28;20053;-66
2022/10/11 06:17:05;;;;;;;11.90;2.50;;;;;;;5.86;100.00;101917.16;6000591;28;20039;-65
2022/10/11 06:20:01;;;;;;;10.00;2.27;;;;;;;5.94;100.00;101930.72;6001310;28;20466;-66
2022/10/11 06:22:57;;;;;;;7.10;2.07;;;;;;;6.07;100.00;101922.13;6008246;28;20105;-66
2022/10/11 06:26:00;;;;;;;10.98;3.40;;;;;;;6.14;100.00;101919.09;6024593;28;20026;-65
2022/10/11 06:28:56;;;;;;;8.32;3.30;;;;;;;6.34;100.00;101936.34;6017252;28;20469;-65
2022/10/11 06:31:51;;;;;;;11.85;2.65;;;;;;;6.37;100.00;101931.75;5999855;28;20069;-66
2022/10/11 06:34:46;;;;;;;10.00;2.70;;;;;;;6.49;100.00;101935.47;6000800;28;20049;-66
2022/10/11 06:37:42;;;;;;;10.50;2.93;;;;;;;6.76;100.00;101938.25;6009564;28;20348;-65
2022/10/11 06:40:37;;;;;;;9.38;3.00;;;;;;;6.96;100.00;101938.75;6021736;28;20030;-66
2022/10/11 06:43:33;;;;;;;18.15;3.20;;;;;;;7.24;100.00;101942.34;6001737;28;20117;-66
2022/10/11 06:46:30;;;;;;;17.07;4.80;;;;;;;7.45;100.00;101948.91;6005136;28;20053;-65
2022/10/11 06:49:25;;;;;;;10.40;3.47;;;;;;;7.64;100.00;101950.31;5999956;28;20042;-65
2022/10/11 06:52:21;;;;;;;7.40;2.70;;;;;;;7.72;100.00;101937.47;6000423;28;20093;-65
2022/10/11 06:55:16;;;;;;;12.80;3.60;;;;;;;7.86;100.00;101941.00;6023925;28;20038;-65
2022/10/11 06:58:11;;;;;;;12.80;3.50;;;;;;;7.97;100.00;101947.31;6023701;28;20050;-65
2022/10/11 07:01:10;;;;;;;13.07;3.43;;;;;;;8.14;100.00;101948.88;6020000;28;20474;-65
2022/10/11 07:04:05;;;;;;;12.40;2.80;;;;;;;8.29;100.00;101955.81;6022277;28;20038;-66
2022/10/11 07:07:00;;;;;;;11.60;3.33;;;;;;;8.52;100.00;101964.88;6023435;28;20552;-66
2022/10/11 07:09:55;;;;;;;12.93;3.13;;;;;;;8.58;100.00;101953.91;6016159;28;20150;-65
2022/10/11 07:12:53;;;;;;;12.00;3.17;;;;;;;8.73;100.00;101966.06;6010833;28;20114;-65
2022/10/11 07:15:49;;;;;;;11.82;2.95;;;;;;;8.80;100.00;101959.44;6020342;28;20109;-66
2022/10/11 07:18:45;;;;;;;7.73;2.43;;;;;;;8.81;100.00;101963.75;5999835;28;20054;-66
2022/10/11 07:21:40;;;;;;;11.70;2.83;;;;;;;8.88;100.00;101973.84;5997440;28;20061;-66
2022/10/11 07:24:35;;;;;;;6.25;2.53;;;;;;;9.14;100.00;101981.75;5999510;28;20162;-66
2022/10/11 07:27:31;;;;;;;11.57;3.10;;;;;;;9.34;100.00;101982.09;5998561;28;20066;-66
2022/10/11 07:30:26;;;;;;;11.13;2.67;;;;;;;9.49;100.00;101969.56;5998571;28;20042;-66
2022/10/11 07:33:21;;;;;;;12.43;3.13;;;;;;;9.85;100.00;101987.31;5998918;28;20031;-66
2022/10/11 07:36:17;;;;;;;5.67;2.20;;;;;;;10.10;98.51;101998.69;5999281;28;20071;-66
2022/10/11 07:39:12;;;;;;;8.70;2.65;;;;;;;10.26;96.68;101985.19;5999244;28;20054;-66
2022/10/11 07:42:08;;;;;;;8.50;2.70;;;;;;;10.63;95.06;101993.88;5997031;28;20736;-66
2022/10/11 07:45:04;;;;;;;13.35;2.60;;;;;;;10.68;94.01;101983.81;5999489;28;20109;-66
2022/10/11 07:48:00;;;;;;;13.52;2.15;;;;;;;10.64;91.90;101982.34;5999283;28;20084;-66
2022/10/11 07:51:10;;;;;;;10.10;1.80;;;;;;;10.80;91.27;101987.31;5998676;28;20483;-66
2022/10/11 07:54:05;;;;;;;7.72;1.80;;;;;;;10.91;89.94;101982.03;5999426;28;20110;-66
2022/10/11 07:57:00;;;;;;;8.57;2.20;;;;;;;10.92;89.55;101984.59;5997917;28;20045;-65
2022/10/11 07:59:56;;;;;;;7.63;1.80;;;;;;;10.94;88.98;101990.63;5999036;28;20065;-65
2022/10/11 08:02:51;;;;;;;12.53;3.23;;;;;;;11.28;89.52;101996.81;5998361;28;20061;-66
2022/10/11 08:05:47;;;;;;;8.03;2.87;;;;;;;11.25;89.06;101999.75;6003726;28;20497;-66
2022/10/11 08:08:42;;;;;;;6.07;1.85;;;;;;;11.45;87.51;102000.81;6000854;28;20037;-66
2022/10/11 08:11:38;;;;;;;9.45;1.70;;;;;;;11.53;87.36;102009.91;6003294;28;20481;-66
2022/10/11 08:14:33;;;;;;;5.88;2.55;;;;;;;11.81;86.60;102009.44;5998424;28;20038;-66
2022/10/11 08:17:28;;;;;;;11.87;2.07;;;;;;;11.93;84.67;102013.78;5998210;28;20067;-66
2022/10/11 08:20:24;;;;;;;10.73;1.87;;;;;;;12.02;84.29;102011.34;6011517;28;20352;-66
2022/10/11 08:23:19;;;;;;;7.40;2.00;;;;;;;12.03;83.91;101997.09;6017703;28;20038;-66
2022/10/11 08:37:49;;;;;;;11.98;1.98;;;;;;;12.46;81.76;102021.88;5984706;28;20051;-67
2022/10/11 08:40:50;;;;;;;8.53;2.70;;;;;;;12.46;81.12;102019.22;6016910;28;20035;-66
2022/10/11 08:44:10;;;;;;;8.82;1.67;;;;;;;12.63;80.45;102034.66;6013522;28;20030;-66
2022/10/11 08:47:21;;;;;;;9.75;1.98;;;;;;;12.75;81.16;102027.44;6020731;28;20429;-66
2022/10/11 08:50:19;;;;;;;9.20;2.17;;;;;;;12.83;80.07;102033.81;5996826;28;20047;-66
2022/10/11 08:53:22;;;;;;;9.10;2.10;;;;;;;12.94;79.22;102031.09;6009355;28;20354;-66
2022/10/11 08:56:19;;;;;;;10.80;2.92;;;;;;;13.14;77.77;102034.78;6015560;28;20038;-66
2022/10/11 08:59:14;;;;;;;9.52;2.10;;;;;;;13.24;77.80;102035.69;6003517;28;20562;-66
2022/10/11 09:02:24;;;;;;;4.07;1.30;;;;;;;13.27;78.19;102031.91;6004694;28;20061;-66
2022/10/11 09:05:20;;;;;;;7.35;2.50;;;;;;;13.39;77.15;102025.53;6020633;28;20080;-66
2022/10/11 09:08:34;;;;;;;10.75;2.50;;;;;;;13.56;77.44;102035.59;6020290;28;20061;-66
2022/10/11 09:11:57;;;;;;;6.93;1.98;;;;;;;13.80;74.08;102044.13;6010638;28;20031;-67
2022/10/11 09:15:08;;;;;;;9.10;1.63;;;;;;;13.81;74.95;102043.13;5995822;28;20054;-66
2022/10/11 09:18:09;;;;;;;9.40;1.90;;;;;;;13.96;75.45;102044.47;5996747;28;20062;-66
2022/10/11 09:21:23;;;;;;;7.93;1.85;;;;;;;14.13;74.12;102041.13;5997600;28;20034;-66
2022/10/11 09:24:35;;;;;;;11.10;1.70;;;;;;;14.00;74.38;102029.03;5997649;28;20037;-66
2022/10/11 09:27:35;;;;;;;9.73;3.00;;;;;;;14.15;74.09;102049.88;5997832;28;20106;-66
2022/10/11 09:30:31;;;;;;;9.82;1.85;;;;;;;13.95;75.06;102048.09;6009041;28;20062;-66
2022/10/11 09:33:40;;;;;;;3.85;1.33;;;;;;;14.16;74.40;102030.19;6020242;28;20044;-66
2022/10/11 09:37:02;;;;;;;7.32;1.80;;;;;;;14.15;73.04;102041.88;6005162;28;20053;-66
2022/10/11 09:40:10;;;;;;;7.20;1.92;;;;;;;14.11;73.03;102051.09;5997729;28;20042;-66
2022/10/11 09:43:08;;;;;;;9.40;1.52;;;;;;;14.24;72.29;102038.34;6001374;28;20044;-65
2022/10/11 09:46:14;;;;;;;12.55;2.15;;;;;;;14.55;74.22;102040.97;6025558;28;20038;-65
2022/10/11 09:49:15;;;;;;;8.20;1.80;;;;;;;14.55;72.57;102032.97;6011474;28;20038;-65
2022/10/11 09:52:16;;;;;;;7.65;1.60;;;;;;;14.54;70.90;102031.28;6001289;28;20031;-64
2022/10/11 09:55:28;;;;;;;11.65;2.33;;;;;;;14.52;70.16;102038.56;6000603;28;20027;-67
2022/10/11 09:58:34;;;;;;;8.38;1.67;;;;;;;14.47;72.34;102046.16;6018468;28;20466;-65
2022/10/11 10:01:32;;;;;;;12.75;2.10;;;;;;;14.42;70.85;102037.72;6024442;28;20031;-67
2022/10/11 10:04:27;;;;;;;7.22;1.50;;;;;;;14.60;72.20;102044.06;6024745;28;20484;-67
2022/10/11 10:07:23;;;;;;;9.07;1.43;;;;;;;14.77;71.89;102038.88;6023769;28;20033;-65
2022/10/11 10:10:27;;;;;;;10.85;2.05;;;;;;;15.02;68.00;102049.97;6022679;28;20028;-65
2022/10/11 10:13:27;;;;;;;5.88;1.80;;;;;;;15.22;67.92;102047.13;6004091;28;20105;-65
2022/10/11 10:16:25;;;;;;;9.13;1.90;;;;;;;14.95;67.92;102059.56;6020864;28;20034;-65
2022/10/11 10:19:20;;;;;;;10.27;2.38;;;;;;;15.00;66.66;102036.75;6024965;28;20088;-67
2022/10/11 10:22:18;;;;;;;10.98;1.92;;;;;;;15.12;69.83;102059.66;6024006;28;20034;-65
2022/10/11 10:25:33;;;;;;;7.95;2.03;;;;;;;14.79;70.08;102055.59;6022829;28;20033;-65
2022/10/11 10:28:28;;;;;;;9.57;2.65;;;;;;;14.69;69.50;102045.91;6024734;28;20030;-65
2022/10/11 10:31:29;;;;;;;6.53;1.80;;;;;;;14.31;70.41;102041.34;6023435;28;20038;-65
2022/10/11 10:34:29;;;;;;;13.15;1.50;;;;;;;14.28;70.58;102052.28;6016809;28;20526;-65
2022/10/11 10:37:28;;;;;;;6.72;1.63;;;;;;;14.59;70.61;102059.25;5999959;28;20034;-65
2022/10/11 10:40:35;;;;;;;9.13;1.60;;;;;;;14.61;69.82;102057.28;6032961;28;20541;-65
2022/10/11 10:43:35;;;;;;;5.10;1.40;;;;;;;15.07;68.06;102043.22;6018879;28;20065;-65
2022/10/11 10:46:49;;;;;;;8.15;2.03;;;;;;;15.01;68.60;102054.47;6038901;28;20129;-65
2022/10/11 10:49:54;;;;;;;8.20;1.63;;;;;;;15.00;68.83;102052.78;6004577;28;20030;-65
2022/10/11 10:53:04;;;;;;;11.75;1.73;;;;;;;14.85;66.68;102047.03;6007336;28;20080;-65
2022/10/11 10:56:04;;;;;;;9.00;2.63;;;;;;;14.74;69.70;102049.84;6022222;28;20049;-65
2022/10/11 10:59:09;;;;;;;4.28;1.20;;;;;;;14.87;66.79;102045.06;6023408;28;20100;-65
2022/10/11 11:02:11;;;;;;;8.95;1.48;;;;;;;14.83;65.35;102038.31;6021555;28;20038;-65
2022/10/11 11:05:24;;;;;;;5.90;1.27;;;;;;;14.81;66.09;102036.78;6023582;28;20041;-66
2022/10/11 11:08:38;;;;;;;10.50;2.10;;;;;;;14.57;66.00;102049.66;6021066;28;20034;-65
2022/10/11 11:11:39;;;;;;;5.32;1.42;;;;;;;14.48;67.38;102050.53;6020141;28;20036;-66
2022/10/11 11:14:59;;;;;;;6.60;1.50;;;;;;;14.54;68.17;102044.63;6005629;28;20041;-65
2022/10/11 11:18:20;;;;;;;9.65;1.25;;;;;;;14.53;67.61;102040.28;6022965;28;20042;-65
2022/10/11 11:21:47;;;;;;;5.18;1.38;;;;;;;14.67;67.59;102035.38;6019923;28;20458;-66
2022/10/11 11:25:07;;;;;;;3.80;1.17;;;;;;;14.82;65.73;102025.94;6022695;28;20124;-66
2022/10/11 11:28:15;;;;;;;7.25;1.50;;;;;;;15.17;65.84;102052.06;6023005;28;20109;-65
2022/10/11 11:31:28;;;;;;;5.72;1.02;;;;;;;14.86;64.60;102035.38;6021760;28;20034;-65
2022/10/11 11:34:50;;;;;;;9.45;1.58;;;;;;;14.87;61.90;102037.03;6014609;28;20027;-66
2022/10/11 11:37:46;;;;;;;5.68;1.20;;;;;;;14.89;61.67;102028.91;5997825;28;20051;-66
2022/10/11 11:40:43;;;;;;;7.85;1.50;;;;;;;14.92;62.09;102033.94;5998535;28;20038;-65
2022/10/11 11:43:51;;;;;;;3.38;0.98;;;;;;;15.07;62.58;102039.69;5998130;28;20109;-65
2022/10/11 11:47:03;;;;;;;4.55;0.80;;;;;;;15.01;60.89;102046.47;6016631;28;20388;-66
2022/10/11 11:50:02;;;;;;;4.70;1.15;;;;;;;14.76;62.24;102031.84;6001961;28;20405;-66
2022/10/11 11:53:04;;;;;;;7.95;1.10;;;;;;;14.67;60.79;102035.38;5999239;28;20034;-67
2022/10/11 11:56:06;;;;;;;7.25;1.63;;;;;;;14.51;60.40;102032.38;5999238;28;20089;-66
2022/10/11 11:59:08;;;;;;;6.30;1.33;;;;;;;14.52;61.76;102033.22;5997495;28;20332;-66
2022/10/11 12:02:28;;;;;;;9.57;1.25;;;;;;;14.69;60.79;102033.41;6008280;28;20466;-66
2022/10/11 12:05:30;;;;;;;9.05;1.38;;;;;;;14.96;60.92;102035.34;6020737;28;20109;-66
2022/10/11 12:08:27;;;;;;;6.25;1.15;;;;;;;15.04;61.40;102026.63;6022700;28;20363;-67
2022/10/11 12:11:28;;;;;;;7.63;1.40;;;;;;;15.22;60.19;102030.28;6008737;28;20743;-67
2022/10/11 12:14:43;;;;;;;7.88;1.25;;;;;;;15.42;57.00;102030.06;6003214;28;20486;-66
2022/10/11 12:17:54;;;;;;;10.27;1.52;;;;;;;15.59;55.17;102024.97;6016123;28;20047;-67
2022/10/11 12:21:01;;;;;;;6.38;1.00;;;;;;;15.60;55.48;102000.75;6004881;28;20046;-67
2022/10/11 12:23:59;;;;;;;7.43;1.83;;;;;;;15.80;55.53;102029.13;6001157;28;20117;-66
2022/10/11 12:26:56;;;;;;;8.65;1.10;;;;;;;15.62;55.95;102017.53;6003076;28;20374;-67
2022/10/11 12:29:52;;;;;;;8.35;1.35;;;;;;;15.66;56.86;102016.22;6007403;28;20041;-67
2022/10/11 12:32:49;;;;;;;5.90;1.03;;;;;;;15.95;55.72;102014.25;6021233;28;20034;-67
2022/10/11 12:35:53;;;;;;;8.98;1.98;;;;;;;15.98;55.59;102015.81;6013998;28;20143;-66
2022/10/11 12:39:17;;;;;;;8.82;1.20;;;;;;;15.59;58.02;102025.84;5998581;28;20450;-67
2022/10/11 12:42:24;;;;;;;6.82;1.20;;;;;;;15.40;54.13;102024.03;5997121;28;20097;-67
2022/10/11 12:45:19;;;;;;;;;;;;;;;15.18;55.05;102028.84;5999631;28;20697;-66
2022/10/11 12:48:26;;;;;;;6.15;1.50;;;;;;;14.93;58.75;102030.28;6015295;28;20353;-66
2022/10/11 12:51:36;;;;;;;4.95;1.20;;;;;;;14.67;58.65;102029.19;5997905;28;20042;-66
2022/10/11 12:54:48;;;;;;;8.27;1.20;;;;;;;14.79;57.03;102022.69;5996931;28;20437;-67
2022/10/11 12:58:06;;;;;;;7.78;1.25;;;;;;;15.03;57.97;102009.75;6009702;28;20053;-67
2022/10/11 13:01:01;;;;;;;7.50;1.40;;;;;;;15.32;56.36;102015.91;6020454;28;20073;-67
2022/10/11 13:04:02;;;;;;;4.77;1.37;;;;;;;15.41;55.60;102009.66;6021737;28;20038;-67
2022/10/11 13:07:03;;;;;;;6.78;1.38;;;;;;;15.61;54.47;102006.94;6021483;28;20022;-67
2022/10/11 13:09:58;;;;;;;7.53;1.00;;;;;;;15.44;53.67;102004.03;6017909;28;20133;-67
2022/10/11 13:12:53;;;;;;;8.10;1.23;;;;;;;15.50;53.13;102005.31;6016879;28;20035;-66
2022/10/11 13:15:51;;;;;;;8.27;1.42;;;;;;;15.63;52.49;102007.63;6003078;28;20026;-67
2022/10/11 13:18:50;;;;;;;6.07;0.93;;;;;;;15.61;52.03;102021.16;5999569;28;20371;-67
2022/10/11 13:22:08;;;;;;;4.32;1.25;;;;;;;15.57;52.83;102018.94;6000282;28;20410;-67
2022/10/11 13:25:05;;;;;;;8.38;1.23;;;;;;;15.36;52.22;101998.56;5993933;28;20046;-67
2022/10/11 13:28:01;;;;;;;7.45;1.05;;;;;;;15.46;51.50;102012.75;6025841;28;20041;-67
2022/10/11 13:30:57;;;;;;;4.93;1.02;;;;;;;15.23;53.12;102016.75;6024154;28;20058;-67
2022/10/11 13:33:54;;;;;;;5.60;1.10;;;;;;;15.12;54.17;102019.59;6024310;28;20097;-67
2022/10/11 13:36:56;;;;;;;5.63;0.95;;;;;;;15.02;54.01;102015.25;6008650;28;20039;-67
2022/10/11 13:39:53;;;;;;;6.25;1.00;;;;;;;14.84;54.87;102012.44;6019435;28;20049;-67
2022/10/11 13:42:50;;;;;;;8.25;1.40;;;;;;;14.74;54.93;102003.59;6002355;28;20038;-67
2022/10/11 13:45:46;;;;;;;2.13;0.82;;;;;;;14.69;56.15;102020.06;6001789;28;20101;-67
2022/10/11 13:48:41;;;;;;;4.60;1.05;;;;;;;14.70;55.09;101996.88;6011117;28;20383;-67
2022/10/11 13:51:37;;;;;;;4.50;1.00;;;;;;;14.62;54.55;102004.75;5999809;28;20031;-66
2022/10/11 13:55:03;;;;;;;7.73;1.20;;;;;;;14.71;53.05;102011.88;6001877;28;20498;-67
2022/10/11 13:58:00;;;;;;;3.03;0.73;;;;;;;14.50;54.69;102000.50;6001942;28;21525;-67
2022/10/11 14:01:00;;;;;;;7.35;1.02;;;;;;;14.49;55.42;101998.81;6000255;28;20023;-67
2022/10/11 14:03:58;;;;;;;8.23;1.25;;;;;;;14.26;58.03;102009.72;6004529;28;20525;-67
2022/10/11 14:06:56;;;;;;;6.28;1.25;;;;;;;14.06;59.72;102021.34;6000042;28;20100;-67